createdAt,value
2022-09-06T00:01:17.031Z,83.33
2022-09-06T00:03:45.879Z,83.06
2022-09-06T00:06:17.380Z,83.35
2022-09-06T00:08:46.967Z,83.52
2022-09-06T00:11:16.740Z,83.65
2022-09-06T00:13:45.833Z,83.76
2022-09-06T00:16:28.428Z,83.67
2022-09-06T00:18:59.981Z,83.79
2022-09-06T00:21:46.266Z,83.48
2022-09-06T00:24:17.874Z,83.68
2022-09-06T00:26:45.870Z,83.65
2022-09-06T00:29:13.920Z,83.70
2022-09-06T00:31:42.098Z,83.83
2022-09-06T00:34:10.053Z,83.63
2022-09-06T00:36:38.089Z,83.90
2022-09-06T00:39:07.187Z,83.90
2022-09-06T00:41:35.324Z,84.15
2022-09-06T00:44:03.507Z,84.04
2022-09-06T00:46:34.063Z,84.22
2022-09-06T00:49:28.566Z,83.91
2022-09-06T00:52:08.132Z,84.12
2022-09-06T00:54:37.032Z,84.41
2022-09-06T00:57:05.463Z,83.96
2022-09-06T00:59:40.065Z,84.43
2022-09-06T01:02:10.354Z,84.33
2022-09-06T01:04:41.189Z,84.31
2022-09-06T01:07:23.831Z,84.46
2022-09-06T01:10:29.476Z,84.47
2022-09-06T01:13:18.812Z,84.39
2022-09-06T01:16:18.861Z,84.29
2022-09-06T01:18:59.418Z,84.29
2022-09-06T01:21:41.059Z,84.51
2022-09-06T01:24:20.581Z,84.32
2022-09-06T01:27:16.401Z,84.07
2022-09-06T01:33:20.708Z,83.74
2022-09-06T01:36:01.827Z,83.97
2022-09-06T01:38:32.358Z,83.94
2022-09-06T01:41:00.370Z,84.03
2022-09-06T01:43:38.785Z,84.21
2022-09-06T01:46:27.177Z,84.30
2022-09-06T01:49:25.546Z,84.36
2022-09-06T01:52:11.295Z,84.35
2022-09-06T01:54:51.215Z,84.47
2022-09-06T01:57:39.102Z,84.27
2022-09-06T02:00:10.710Z,84.20
2022-09-06T02:02:54.619Z,84.17
2022-09-06T02:05:33.326Z,84.65
2022-09-06T02:08:08.147Z,84.77
2022-09-06T02:10:51.741Z,84.55
2022-09-06T02:13:26.359Z,84.66
2022-09-06T02:16:05.019Z,84.82
2022-09-06T02:18:47.607Z,84.40
2022-09-06T02:21:19.146Z,84.67
2022-09-06T02:23:48.430Z,85.01
2022-09-06T02:26:28.525Z,84.88
2022-09-06T02:28:57.506Z,85.00
2022-09-06T02:31:39.491Z,85.20
2022-09-06T02:34:08.381Z,84.92
2022-09-06T02:36:38.039Z,84.85
2022-09-06T02:39:08.068Z,84.89
2022-09-06T02:41:35.880Z,84.76
2022-09-06T02:44:04.049Z,84.66
2022-09-06T02:46:32.377Z,84.80
2022-09-06T02:49:00.521Z,84.81
2022-09-06T02:51:28.566Z,85.00
2022-09-06T02:53:58.967Z,84.85
2022-09-06T02:56:26.907Z,85.06
2022-09-06T02:58:54.937Z,84.89
2022-09-06T03:01:23.966Z,85.17
2022-09-06T03:03:52.118Z,85.05
2022-09-06T03:06:20.364Z,85.13
2022-09-06T03:08:48.618Z,85.21
2022-09-06T03:11:16.739Z,85.54
2022-09-06T03:13:44.971Z,85.60
2022-09-06T03:16:15.110Z,85.48
2022-09-06T03:18:43.220Z,85.57
2022-09-06T03:21:11.765Z,85.10
2022-09-06T03:23:40.325Z,85.56
2022-09-06T03:26:09.037Z,85.29
2022-09-06T03:28:37.038Z,85.41
2022-09-06T03:31:06.333Z,85.42
2022-09-06T03:33:34.386Z,85.67
2022-09-06T03:36:03.923Z,85.54
2022-09-06T03:38:33.028Z,85.59
2022-09-06T03:41:01.194Z,85.80
2022-09-06T03:43:29.396Z,85.57
2022-09-06T03:45:59.967Z,85.74
2022-09-06T03:48:30.558Z,85.56
2022-09-06T03:50:59.768Z,85.83
2022-09-06T03:53:31.202Z,85.88
2022-09-06T03:55:59.700Z,85.79
2022-09-06T03:58:32.359Z,86.07
2022-09-06T04:01:09.079Z,85.85
2022-09-06T04:03:38.272Z,85.94
2022-09-06T04:06:07.746Z,86.30
2022-09-06T04:08:38.279Z,86.32
2022-09-06T04:11:07.468Z,86.45
2022-09-06T04:13:36.547Z,86.50
2022-09-06T04:16:07.157Z,86.55
2022-09-06T04:18:35.274Z,86.36
2022-09-06T04:21:03.608Z,86.57
2022-09-06T04:23:33.510Z,86.32
2022-09-06T04:26:05.172Z,86.70
2022-09-06T04:28:33.207Z,86.48
2022-09-06T04:31:05.645Z,87.04
2022-09-06T04:33:35.444Z,86.82
2022-09-06T04:36:12.097Z,86.88
2022-09-06T04:38:42.915Z,87.07
2022-09-06T04:41:13.366Z,86.90
2022-09-06T04:43:43.795Z,86.61
2022-09-06T04:46:30.465Z,86.88
2022-09-06T04:49:00.082Z,86.74
2022-09-06T04:51:28.739Z,86.68
2022-09-06T04:53:56.814Z,86.72
2022-09-06T04:56:28.264Z,86.84
2022-09-06T04:58:56.715Z,86.91
2022-09-06T05:01:26.867Z,86.64
2022-09-06T05:03:57.305Z,86.75
2022-09-06T05:06:26.636Z,86.76
2022-09-06T05:08:54.909Z,86.73
2022-09-06T05:11:24.209Z,86.75
2022-09-06T05:13:52.274Z,86.42
2022-09-06T05:16:21.290Z,86.61
2022-09-06T05:18:49.474Z,86.66
2022-09-06T05:21:17.584Z,86.73
2022-09-06T05:23:45.858Z,86.46
2022-09-06T05:26:14.008Z,86.61
2022-09-06T05:28:41.994Z,86.60
2022-09-06T05:31:12.828Z,87.03
2022-09-06T05:33:41.240Z,87.10
2022-09-06T05:36:09.744Z,86.75
2022-09-06T05:38:37.828Z,86.87
2022-09-06T05:41:07.885Z,87.08
2022-09-06T05:43:35.909Z,87.17
2022-09-06T05:46:04.663Z,86.97
2022-09-06T05:48:36.777Z,87.26
2022-09-06T05:51:08.961Z,87.38
2022-09-06T05:53:44.029Z,87.29
2022-09-06T05:56:14.478Z,87.33
2022-09-06T05:58:42.563Z,87.41
2022-09-06T06:01:29.323Z,87.21
2022-09-06T06:04:03.322Z,87.46
2022-09-06T06:06:34.824Z,87.52
2022-09-06T06:09:03.067Z,87.70
2022-09-06T06:11:32.368Z,87.99
2022-09-06T06:14:00.900Z,87.75
2022-09-06T06:16:29.957Z,87.80
2022-09-06T06:18:58.315Z,87.79
2022-09-06T06:21:33.527Z,87.59
2022-09-06T06:24:04.578Z,87.60
2022-09-06T06:26:35.248Z,87.62
2022-09-06T06:29:03.820Z,88.00
2022-09-06T06:31:33.413Z,87.79
2022-09-06T06:34:04.342Z,87.86
2022-09-06T06:36:37.449Z,87.95
2022-09-06T06:39:09.159Z,88.25
2022-09-06T06:41:38.640Z,88.08
2022-09-06T06:44:25.835Z,87.97
2022-09-06T06:46:53.826Z,87.97
2022-09-06T06:49:22.008Z,87.88
2022-09-06T06:51:51.185Z,88.11
2022-09-06T06:54:19.253Z,88.03
2022-09-06T06:56:47.789Z,88.53
2022-09-06T06:59:16.773Z,88.35
2022-09-06T07:01:45.525Z,88.10
2022-09-06T07:04:15.117Z,88.38
2022-09-06T07:12:31.927Z,88.14
2022-09-06T07:14:59.992Z,88.11
2022-09-06T07:17:29.031Z,88.30
2022-09-06T07:20:14.872Z,88.21
2022-09-06T07:22:43.871Z,88.40
2022-09-06T07:25:19.049Z,88.36
2022-09-06T07:27:50.118Z,88.11
2022-09-06T07:30:20.790Z,88.30
2022-09-06T07:32:49.420Z,88.38
2022-09-06T07:35:17.972Z,88.27
2022-09-06T07:37:54.897Z,88.47
2022-09-06T07:40:23.850Z,88.48
2022-09-06T07:42:52.010Z,88.61
2022-09-06T07:45:20.761Z,88.65
2022-09-06T07:48:01.496Z,88.57
2022-09-06T07:50:49.091Z,88.68
2022-09-06T07:53:26.247Z,88.51
2022-09-06T07:56:01.277Z,88.68
2022-09-06T07:58:31.528Z,88.53
2022-09-06T08:01:31.561Z,88.89
2022-09-06T08:04:02.690Z,88.62
2022-09-06T08:09:22.999Z,88.50
2022-09-06T08:11:51.748Z,88.61
2022-09-06T08:14:20.536Z,88.54
2022-09-06T08:16:49.689Z,88.97
2022-09-06T08:19:21.063Z,88.66
2022-09-06T08:21:49.160Z,88.58
2022-09-06T08:24:18.350Z,88.75
2022-09-06T08:26:46.475Z,88.68
2022-09-06T08:29:15.093Z,88.92
2022-09-06T08:31:45.302Z,88.62
2022-09-06T08:34:14.806Z,88.84
2022-09-06T08:36:43.291Z,89.02
2022-09-06T08:39:14.929Z,89.09
2022-09-06T08:41:49.096Z,88.93
2022-09-06T08:47:14.726Z,88.92
2022-09-06T08:49:53.587Z,88.91
2022-09-06T08:52:54.381Z,88.62
2022-09-06T08:55:46.026Z,88.91
2022-09-06T08:58:52.146Z,89.09
2022-09-06T09:01:26.374Z,88.85
2022-09-06T09:03:58.778Z,89.12
2022-09-06T09:06:29.153Z,89.12
2022-09-06T09:09:15.559Z,88.88
2022-09-06T09:11:51.078Z,88.98
2022-09-06T09:14:33.033Z,89.14
2022-09-06T09:17:07.318Z,89.02
2022-09-06T09:19:38.551Z,88.56
2022-09-06T09:22:07.527Z,88.62
2022-09-06T09:24:37.906Z,88.96
2022-09-06T09:27:12.748Z,88.77
2022-09-06T09:32:47.787Z,88.64
2022-09-06T09:35:34.842Z,88.77
2022-09-06T09:38:26.955Z,88.89
2022-09-06T09:40:56.789Z,88.88
2022-09-06T09:43:39.581Z,89.07
2022-09-06T09:46:17.099Z,88.82
2022-09-06T09:49:03.915Z,89.04
2022-09-06T09:51:35.185Z,88.66
2022-09-06T09:54:06.517Z,88.88
2022-09-06T09:56:37.039Z,89.00
2022-09-06T09:59:18.827Z,88.94
2022-09-06T10:01:48.247Z,88.85
2022-09-06T10:07:24.208Z,89.30
2022-09-06T10:10:05.573Z,89.05
2022-09-06T10:12:40.708Z,88.98
2022-09-06T10:15:13.976Z,88.67
2022-09-06T10:17:56.279Z,89.20
2022-09-06T10:20:49.092Z,89.13
2022-09-06T10:26:17.562Z,88.68
2022-09-06T10:28:47.695Z,88.66
2022-09-06T10:31:30.294Z,89.03
2022-09-06T10:34:14.957Z,88.74
2022-09-06T10:37:21.620Z,88.80
2022-09-06T10:40:15.238Z,88.91
2022-09-06T10:42:51.027Z,88.67
2022-09-06T10:45:47.196Z,88.66
2022-09-06T10:48:41.312Z,88.35
2022-09-06T10:51:22.773Z,88.86
2022-09-06T10:53:56.681Z,88.64
2022-09-06T10:56:38.810Z,89.10
2022-09-06T10:59:39.289Z,88.53
2022-09-06T11:02:39.148Z,88.69
2022-09-06T11:05:38.995Z,88.78
2022-09-06T11:08:46.719Z,88.64
2022-09-06T11:11:25.206Z,88.66
2022-09-06T11:13:53.346Z,89.05
2022-09-06T11:16:32.061Z,88.80
2022-09-06T11:19:32.214Z,88.76
2022-09-06T11:22:13.598Z,89.11
2022-09-06T11:25:29.365Z,89.39
2022-09-06T11:28:00.112Z,88.98
2022-09-06T11:30:30.650Z,88.93
2022-09-06T11:33:40.535Z,88.53
2022-09-06T11:36:41.713Z,88.48
2022-09-06T11:39:11.014Z,89.02
2022-09-06T11:41:41.996Z,88.76
2022-09-06T11:44:15.890Z,88.82
2022-09-06T11:46:59.505Z,88.72
2022-09-06T11:49:38.983Z,88.83
2022-09-06T11:52:43.909Z,88.74
2022-09-06T11:55:16.104Z,88.69
2022-09-06T11:57:48.151Z,88.63
2022-09-06T12:00:20.109Z,88.64
2022-09-06T12:02:48.405Z,88.71
2022-09-06T12:05:24.043Z,88.44
2022-09-06T12:08:21.366Z,88.40
2022-09-06T12:10:58.307Z,88.67
2022-09-06T12:13:47.834Z,88.79
2022-09-06T12:16:18.209Z,88.76
2022-09-06T12:18:49.328Z,88.79
2022-09-06T12:21:53.346Z,88.86
2022-09-06T12:24:39.400Z,88.64
2022-09-06T12:27:23.452Z,88.79
2022-09-06T12:29:52.717Z,89.00
2022-09-06T12:32:27.122Z,88.84
2022-09-06T12:38:00.430Z,88.60
2022-09-06T12:40:32.799Z,88.93
2022-09-06T12:43:03.423Z,88.73
2022-09-06T12:45:32.250Z,88.96
2022-09-06T12:48:25.874Z,88.54
2022-09-06T12:51:17.203Z,89.03
2022-09-06T12:53:53.307Z,88.79
2022-09-06T12:56:24.522Z,88.76
2022-09-06T12:58:52.682Z,88.75
2022-09-06T13:01:35.531Z,89.00
2022-09-06T13:04:17.058Z,88.67
2022-09-06T13:06:48.361Z,88.95
2022-09-06T13:09:21.383Z,89.26
2022-09-06T13:11:53.026Z,89.00
2022-09-06T13:14:31.462Z,89.01
2022-09-06T13:17:00.552Z,89.42
2022-09-06T13:19:36.407Z,89.43
2022-09-06T13:22:08.318Z,89.06
2022-09-06T13:24:36.265Z,89.42
2022-09-06T13:27:27.044Z,89.21
2022-09-06T13:29:57.645Z,89.17
2022-09-06T13:32:29.479Z,89.24
2022-09-06T13:35:00.780Z,89.18
2022-09-06T13:37:32.246Z,89.76
2022-09-06T13:40:00.674Z,89.38
2022-09-06T13:42:40.508Z,89.54
2022-09-06T13:45:30.451Z,89.77
2022-09-06T13:48:13.155Z,89.38
2022-09-06T13:50:46.717Z,89.29
2022-09-06T13:53:21.539Z,89.51
2022-09-06T13:55:49.592Z,89.57
2022-09-06T13:58:17.610Z,89.46
2022-09-06T14:00:47.851Z,89.34
2022-09-06T14:03:26.148Z,89.45
2022-09-06T14:05:58.317Z,89.36
2022-09-06T14:08:34.581Z,89.46
2022-09-06T14:11:14.956Z,89.58
2022-09-06T14:13:43.123Z,89.27
2022-09-06T14:16:11.600Z,89.35
2022-09-06T14:18:40.983Z,89.22
2022-09-06T14:21:09.075Z,89.61
2022-09-06T14:23:58.833Z,89.43
2022-09-06T14:26:29.686Z,89.63
2022-09-06T14:28:57.892Z,90.05
2022-09-06T14:31:29.254Z,89.76
2022-09-06T14:33:59.088Z,90.19
2022-09-06T14:36:32.998Z,90.00
2022-09-06T14:39:02.461Z,90.08
2022-09-06T14:41:30.943Z,90.43
2022-09-06T14:44:01.062Z,90.25
2022-09-06T14:46:30.497Z,90.52
2022-09-06T14:49:11.720Z,90.12
2022-09-06T14:51:40.541Z,90.10
2022-09-06T14:54:11.351Z,90.53
2022-09-06T14:56:42.356Z,90.57
2022-09-06T14:59:11.694Z,90.32
2022-09-06T15:01:41.415Z,90.29
2022-09-06T15:04:13.465Z,90.97
2022-09-06T15:06:45.503Z,90.57
2022-09-06T15:09:15.633Z,90.62
2022-09-06T15:11:47.098Z,90.95
2022-09-06T15:14:17.932Z,90.71
2022-09-06T15:16:49.856Z,90.51
2022-09-06T15:19:22.096Z,90.79
2022-09-06T15:21:50.148Z,90.65
2022-09-06T15:24:18.444Z,90.60
2022-09-06T15:26:49.049Z,90.81
2022-09-06T15:29:17.421Z,90.76
2022-09-06T15:31:51.665Z,90.71
2022-09-06T15:34:21.691Z,90.66
2022-09-06T15:36:51.268Z,90.63
2022-09-06T15:39:19.824Z,90.42
2022-09-06T15:41:47.932Z,90.58
2022-09-06T15:44:18.594Z,90.65
2022-09-06T15:46:56.022Z,90.59
2022-09-06T15:49:28.513Z,90.56
2022-09-06T15:51:58.772Z,90.54
2022-09-06T15:54:45.679Z,90.61
2022-09-06T15:57:16.796Z,90.36
2022-09-06T15:59:45.169Z,90.75
2022-09-06T16:02:14.555Z,90.40
2022-09-06T16:04:42.729Z,90.77
2022-09-06T16:07:10.738Z,90.52
2022-09-06T16:09:40.466Z,90.66
2022-09-06T16:12:09.862Z,90.68
2022-09-06T16:14:38.788Z,90.74
2022-09-06T16:17:08.974Z,90.89
2022-09-06T16:19:37.183Z,90.58
2022-09-06T16:22:05.402Z,90.57
2022-09-06T16:24:33.646Z,90.72
2022-09-06T16:27:01.711Z,90.43
2022-09-06T16:29:29.757Z,90.77
2022-09-06T16:32:00.526Z,90.43
2022-09-06T16:34:28.585Z,90.71
2022-09-06T16:36:57.574Z,90.43
2022-09-06T16:39:40.697Z,90.92
2022-09-06T16:42:08.875Z,90.51
2022-09-06T16:44:37.489Z,90.54
2022-09-06T16:47:06.781Z,90.53
2022-09-06T16:49:34.852Z,90.23
2022-09-06T16:52:03.100Z,90.61
2022-09-06T16:54:33.176Z,90.41
2022-09-06T16:57:02.900Z,90.31
2022-09-06T16:59:30.976Z,90.52
2022-09-06T17:02:00.327Z,90.25
2022-09-06T17:04:28.642Z,90.49
2022-09-06T17:06:56.605Z,90.49
2022-09-06T17:09:25.677Z,90.20
2022-09-06T17:11:53.811Z,90.30
2022-09-06T17:14:22.979Z,90.46
2022-09-06T17:17:06.388Z,90.10
2022-09-06T17:19:40.192Z,90.29
2022-09-06T17:22:12.111Z,90.05
2022-09-06T17:24:53.176Z,90.32
2022-09-06T17:27:22.354Z,90.30
2022-09-06T17:29:50.406Z,89.97
2022-09-06T17:32:18.489Z,90.20
2022-09-06T17:34:47.491Z,90.03
2022-09-06T17:37:16.189Z,90.46
2022-09-06T17:39:44.256Z,90.36
2022-09-06T17:42:12.505Z,90.07
2022-09-06T17:44:40.543Z,90.23
2022-09-06T17:47:12.921Z,90.48
2022-09-06T17:49:44.049Z,90.60
2022-09-06T17:52:11.982Z,90.04
2022-09-06T17:54:40.062Z,90.32
2022-09-06T17:57:09.826Z,90.23
2022-09-06T17:59:39.255Z,90.12
2022-09-06T18:02:08.992Z,90.00
2022-09-06T18:04:37.412Z,90.22
2022-09-06T18:07:05.513Z,90.34
2022-09-06T18:09:33.614Z,90.01
2022-09-06T18:12:03.569Z,90.34
2022-09-06T18:14:31.552Z,90.07
2022-09-06T18:17:02.149Z,89.97
2022-09-06T18:19:30.387Z,90.35
2022-09-06T18:21:58.486Z,89.98
2022-09-06T18:24:26.692Z,89.81
2022-09-06T18:26:56.089Z,89.98
2022-09-06T18:29:24.165Z,89.86
2022-09-06T18:31:54.684Z,89.85
2022-09-06T18:34:23.019Z,90.01
2022-09-06T18:36:51.214Z,90.62
2022-09-06T18:39:20.899Z,90.42
2022-09-06T18:42:03.138Z,90.29
2022-09-06T18:44:33.407Z,90.33
2022-09-06T18:47:07.619Z,90.43
2022-09-06T18:49:43.749Z,90.33
2022-09-06T18:52:12.332Z,90.33
2022-09-06T18:54:40.503Z,90.67
2022-09-06T18:57:10.293Z,90.74
2022-09-06T19:00:27.424Z,90.81
2022-09-06T19:02:57.169Z,90.52
2022-09-06T19:05:25.324Z,90.48
2022-09-06T19:07:53.415Z,90.86
2022-09-06T19:10:21.577Z,90.46
2022-09-06T19:12:53.125Z,90.28
2022-09-06T19:15:21.525Z,90.57
2022-09-06T19:17:51.618Z,90.62
2022-09-06T19:20:20.169Z,90.81
2022-09-06T19:22:51.681Z,90.75
2022-09-06T19:25:21.059Z,90.33
2022-09-06T19:27:49.182Z,90.34
2022-09-06T19:30:18.325Z,90.70
2022-09-06T19:32:48.692Z,90.67
2022-09-06T19:35:16.764Z,90.72
2022-09-06T19:37:44.838Z,90.39
2022-09-06T19:40:13.098Z,90.90
2022-09-06T19:42:41.213Z,90.35
2022-09-06T19:45:10.533Z,90.25
2022-09-06T19:47:40.210Z,90.27
2022-09-06T19:50:09.709Z,90.54
2022-09-06T19:52:37.676Z,90.51
2022-09-06T19:55:06.216Z,90.71
2022-09-06T19:57:34.277Z,90.61
2022-09-06T20:00:02.289Z,90.47
2022-09-06T20:02:31.669Z,90.88
2022-09-06T20:04:59.912Z,90.77
2022-09-06T20:07:29.003Z,91.04
2022-09-06T20:09:58.131Z,90.69
2022-09-06T20:12:26.210Z,90.96
2022-09-06T20:14:54.293Z,90.48
2022-09-06T20:17:40.050Z,90.81
2022-09-06T20:20:09.303Z,90.67
2022-09-06T20:22:37.595Z,90.73
2022-09-06T20:25:06.054Z,90.47
2022-09-06T20:27:34.020Z,90.71
2022-09-06T20:30:05.365Z,90.63
2022-09-06T20:32:34.632Z,90.75
2022-09-06T20:35:02.637Z,90.87
2022-09-06T20:37:31.909Z,91.07
2022-09-06T20:39:59.933Z,90.92
2022-09-06T20:42:28.126Z,91.04
2022-09-06T20:44:57.284Z,91.05
2022-09-06T20:47:25.332Z,90.69
2022-09-06T20:49:53.347Z,90.77
2022-09-06T20:52:24.629Z,90.78
2022-09-06T20:54:52.647Z,90.64
2022-09-06T20:57:20.839Z,90.83
2022-09-06T20:59:50.449Z,90.84
2022-09-06T21:02:18.656Z,90.96
2022-09-06T21:04:46.702Z,90.64
2022-09-06T21:07:15.223Z,91.04
2022-09-06T21:09:43.301Z,90.84
2022-09-06T21:12:11.464Z,90.63
2022-09-06T21:14:40.208Z,91.02
2022-09-06T21:17:08.239Z,91.08
2022-09-06T21:19:36.932Z,90.72
2022-09-06T21:22:05.613Z,90.79
2022-09-06T21:24:34.953Z,90.77
2022-09-06T21:27:02.936Z,90.55
2022-09-06T21:29:31.196Z,90.77
2022-09-06T21:31:59.421Z,90.56
2022-09-06T21:34:27.434Z,90.60
2022-09-06T21:36:55.575Z,90.90
2022-09-06T21:39:23.581Z,90.91
2022-09-06T21:41:52.375Z,90.90
2022-09-06T21:44:21.527Z,90.87
2022-09-06T21:46:49.693Z,90.52
2022-09-06T21:49:17.784Z,90.79
2022-09-06T21:51:47.565Z,90.98
2022-09-06T21:54:15.525Z,90.54
2022-09-06T21:56:43.668Z,91.03
2022-09-06T21:59:13.563Z,90.76
2022-09-06T22:01:43.178Z,90.90
2022-09-06T22:04:14.423Z,90.60
2022-09-06T22:06:42.646Z,90.55
2022-09-06T22:09:13.478Z,90.33
2022-09-06T22:11:45.042Z,90.51
2022-09-06T22:14:15.321Z,90.91
2022-09-06T22:16:43.433Z,90.80
2022-09-06T22:19:12.309Z,90.87
2022-09-06T22:21:41.169Z,91.03
2022-09-06T22:24:11.702Z,90.82
2022-09-06T22:26:47.127Z,90.75
2022-09-06T22:29:16.208Z,90.73
2022-09-06T22:31:44.857Z,90.55
2022-09-06T22:34:13.033Z,90.92
2022-09-06T22:36:41.190Z,90.76
2022-09-06T22:39:10.127Z,90.49
2022-09-06T22:41:39.557Z,90.79
2022-09-06T22:44:07.889Z,90.67
2022-09-06T22:46:37.796Z,90.72
2022-09-06T22:49:07.948Z,90.94
2022-09-06T22:51:36.044Z,90.76
2022-09-06T22:54:05.148Z,90.39
2022-09-06T22:56:33.413Z,90.40
2022-09-06T22:59:01.457Z,90.31
2022-09-06T23:01:29.863Z,90.54
2022-09-06T23:03:58.767Z,90.39
2022-09-06T23:06:45.326Z,90.53
2022-09-06T23:09:13.641Z,90.12
2022-09-06T23:11:41.734Z,90.55
2022-09-06T23:14:09.790Z,90.71
2022-09-06T23:16:41.883Z,90.55
2022-09-06T23:19:10.943Z,90.50
2022-09-06T23:21:39.069Z,90.39
2022-09-06T23:24:07.224Z,90.24
2022-09-06T23:26:36.010Z,90.67
2022-09-06T23:29:04.253Z,90.53
2022-09-06T23:31:35.241Z,90.48
2022-09-06T23:34:04.032Z,90.26
2022-09-06T23:36:33.061Z,90.41
2022-09-06T23:39:03.217Z,90.54
2022-09-06T23:41:31.611Z,90.52
2022-09-06T23:43:59.684Z,90.47
2022-09-06T23:46:28.920Z,90.65
2022-09-06T23:48:57.064Z,90.54
2022-09-06T23:54:12.344Z,90.80
2022-09-06T23:56:40.386Z,90.52
2022-09-06T23:59:08.468Z,90.81
